createdAt,value
2023-07-19T00:02:06.152Z,41.56
2023-07-19T00:04:33.867Z,41.10
2023-07-19T00:07:01.220Z,41.10
2023-07-19T00:09:28.884Z,41.19
2023-07-19T00:11:56.298Z,41.31
2023-07-19T00:14:23.930Z,41.10
2023-07-19T00:16:51.619Z,41.33
2023-07-19T00:19:21.127Z,41.38
2023-07-19T00:21:49.001Z,40.99
2023-07-19T00:24:17.098Z,41.21
2023-07-19T00:26:44.688Z,40.88
2023-07-19T00:29:12.270Z,41.09
2023-07-19T00:31:39.713Z,41.03
2023-07-19T00:34:07.796Z,41.15
2023-07-19T00:36:35.239Z,40.82
2023-07-19T00:39:04.288Z,40.78
2023-07-19T00:41:31.640Z,41.05
2023-07-19T00:43:59.747Z,40.80
2023-07-19T00:46:28.562Z,40.82
2023-07-19T00:48:57.761Z,40.92
2023-07-19T00:51:25.310Z,40.95
2023-07-19T00:53:53.977Z,40.79
2023-07-19T00:56:22.111Z,40.93
2023-07-19T00:58:53.569Z,40.60
2023-07-19T01:01:24.664Z,40.96
2023-07-19T01:03:52.894Z,40.91
2023-07-19T01:06:20.873Z,40.94
2023-07-19T01:08:50.088Z,40.78
2023-07-19T01:11:17.533Z,41.03
2023-07-19T01:13:55.242Z,41.08
2023-07-19T01:16:23.333Z,40.88
2023-07-19T01:18:51.208Z,40.92
2023-07-19T01:21:23.876Z,41.04
2023-07-19T01:23:52.243Z,41.04
2023-07-19T01:26:19.886Z,40.88
2023-07-19T01:28:47.502Z,41.15
2023-07-19T01:31:19.395Z,40.85
2023-07-19T01:33:47.515Z,41.06
2023-07-19T01:36:14.897Z,41.17
2023-07-19T01:38:42.554Z,41.17
2023-07-19T01:41:09.980Z,40.84
2023-07-19T01:43:37.607Z,40.93
2023-07-19T01:46:05.096Z,40.96
2023-07-19T01:48:34.025Z,41.32
2023-07-19T01:51:03.562Z,41.01
2023-07-19T01:53:31.234Z,41.61
2023-07-19T01:55:58.560Z,41.35
2023-07-19T01:58:26.161Z,41.40
2023-07-19T02:00:54.886Z,41.48
2023-07-19T02:03:22.952Z,41.45
2023-07-19T02:05:59.984Z,41.47
2023-07-19T02:08:27.687Z,41.64
2023-07-19T02:10:57.737Z,41.65
2023-07-19T02:13:25.373Z,41.60
2023-07-19T02:15:52.790Z,41.96
2023-07-19T02:18:23.186Z,41.60
2023-07-19T02:20:54.739Z,41.71
2023-07-19T02:23:22.877Z,42.04
2023-07-19T02:25:50.610Z,41.82
2023-07-19T02:28:18.709Z,41.90
2023-07-19T02:30:46.626Z,42.03
2023-07-19T02:33:15.177Z,42.15
2023-07-19T02:35:42.949Z,42.06
2023-07-19T02:38:11.346Z,42.00
2023-07-19T02:40:38.921Z,41.90
2023-07-19T02:43:06.514Z,42.16
2023-07-19T02:45:37.052Z,41.99
2023-07-19T02:48:05.025Z,41.92
2023-07-19T02:50:32.612Z,42.07
2023-07-19T02:53:00.272Z,42.14
2023-07-19T02:55:27.638Z,42.05
2023-07-19T02:57:55.279Z,42.23
2023-07-19T03:00:22.615Z,42.18
2023-07-19T03:02:55.507Z,42.35
2023-07-19T03:05:24.142Z,42.13
2023-07-19T03:07:52.253Z,42.20
2023-07-19T03:10:19.610Z,42.37
2023-07-19T03:12:47.245Z,42.31
2023-07-19T03:15:14.805Z,42.11
2023-07-19T03:17:42.451Z,42.21
2023-07-19T03:20:11.309Z,42.34
2023-07-19T03:22:39.011Z,42.38
2023-07-19T03:25:07.080Z,42.25
2023-07-19T03:27:34.755Z,42.18
2023-07-19T03:30:02.542Z,42.21
2023-07-19T03:32:31.017Z,42.03
2023-07-19T03:34:58.448Z,42.00
2023-07-19T03:37:26.124Z,42.33
2023-07-19T03:39:53.482Z,42.18
2023-07-19T03:42:21.101Z,42.02
2023-07-19T03:44:48.489Z,42.09
2023-07-19T03:47:16.143Z,42.26
2023-07-19T03:49:44.271Z,42.14
2023-07-19T03:52:12.253Z,42.20
2023-07-19T03:54:39.608Z,42.35
2023-07-19T03:57:07.470Z,42.35
2023-07-19T03:59:34.819Z,42.28
2023-07-19T04:02:02.507Z,42.34
2023-07-19T04:04:30.694Z,42.52
2023-07-19T04:06:58.403Z,42.56
2023-07-19T04:09:25.784Z,42.60
2023-07-19T04:11:53.417Z,42.44
2023-07-19T04:14:20.856Z,42.71
2023-07-19T04:16:48.485Z,42.77
2023-07-19T04:19:15.935Z,42.84
2023-07-19T04:21:43.555Z,42.61
2023-07-19T04:24:10.906Z,42.87
2023-07-19T04:26:38.658Z,42.94
2023-07-19T04:29:06.004Z,42.89
2023-07-19T04:31:33.655Z,42.79
2023-07-19T04:34:01.197Z,43.06
2023-07-19T04:36:28.941Z,43.16
2023-07-19T04:38:56.296Z,43.21
2023-07-19T04:41:24.119Z,43.42
2023-07-19T04:43:52.429Z,43.49
2023-07-19T04:46:21.486Z,43.56
2023-07-19T04:48:49.205Z,43.59
2023-07-19T04:51:16.905Z,43.84
2023-07-19T04:53:44.262Z,43.87
2023-07-19T04:56:11.886Z,43.68
2023-07-19T04:58:39.293Z,43.87
2023-07-19T05:01:07.048Z,44.01
2023-07-19T05:03:34.845Z,44.22
2023-07-19T05:06:03.062Z,43.76
2023-07-19T05:08:30.435Z,44.04
2023-07-19T05:10:58.068Z,43.69
2023-07-19T05:13:25.454Z,43.81
2023-07-19T05:15:53.092Z,43.53
2023-07-19T05:18:20.440Z,43.64
2023-07-19T05:20:48.143Z,43.38
2023-07-19T05:23:16.010Z,43.53
2023-07-19T05:25:43.674Z,43.32
2023-07-19T05:28:11.010Z,43.33
2023-07-19T05:30:38.804Z,43.01
2023-07-19T05:33:06.265Z,43.34
2023-07-19T05:35:34.167Z,43.09
2023-07-19T05:38:01.551Z,43.13
2023-07-19T05:40:29.277Z,42.96
2023-07-19T05:42:57.308Z,42.85
2023-07-19T05:45:24.966Z,42.94
2023-07-19T05:47:52.444Z,42.98
2023-07-19T05:50:20.172Z,42.94
2023-07-19T05:52:48.106Z,43.23
2023-07-19T05:55:16.788Z,43.38
2023-07-19T05:57:44.111Z,43.43
2023-07-19T06:00:23.676Z,43.21
2023-07-19T06:02:55.438Z,43.46
2023-07-19T06:05:25.887Z,43.46
2023-07-19T06:07:53.658Z,43.63
2023-07-19T06:10:21.380Z,43.45
2023-07-19T06:12:49.186Z,43.57
2023-07-19T06:15:17.047Z,43.52
2023-07-19T06:17:44.871Z,43.60
2023-07-19T06:20:12.722Z,43.35
2023-07-19T06:22:40.390Z,43.59
2023-07-19T06:25:08.467Z,43.46
2023-07-19T06:27:35.849Z,43.56
2023-07-19T06:30:04.400Z,43.49
2023-07-19T06:32:31.863Z,43.38
2023-07-19T06:34:59.487Z,43.65
2023-07-19T06:37:26.848Z,43.42
2023-07-19T06:39:54.501Z,43.35
2023-07-19T06:42:21.942Z,43.53
2023-07-19T06:44:49.672Z,43.32
2023-07-19T06:47:17.025Z,43.55
2023-07-19T06:49:45.773Z,43.64
2023-07-19T06:52:13.223Z,43.66
2023-07-19T06:54:40.893Z,43.59
2023-07-19T06:57:08.241Z,43.73
2023-07-19T06:59:36.380Z,43.40
2023-07-19T07:02:03.814Z,43.79
2023-07-19T07:04:31.435Z,43.48
2023-07-19T07:06:58.912Z,43.46
2023-07-19T07:09:26.918Z,43.46
2023-07-19T07:11:54.292Z,43.56
2023-07-19T07:14:21.963Z,43.57
2023-07-19T07:16:49.356Z,43.35
2023-07-19T07:19:16.724Z,43.47
2023-07-19T07:21:44.335Z,43.38
2023-07-19T07:24:11.673Z,43.68
2023-07-19T07:26:39.260Z,43.62
2023-07-19T07:29:06.672Z,43.75
2023-07-19T07:31:34.403Z,43.63
2023-07-19T07:34:01.860Z,43.78
2023-07-19T07:36:29.535Z,43.44
2023-07-19T07:38:56.948Z,43.36
2023-07-19T07:41:24.722Z,43.88
2023-07-19T07:43:52.278Z,43.97
2023-07-19T07:46:20.047Z,43.63
2023-07-19T07:48:47.428Z,43.84
2023-07-19T07:51:15.070Z,43.92
2023-07-19T07:53:42.494Z,43.78
2023-07-19T07:56:10.116Z,43.86
2023-07-19T07:58:37.497Z,43.94
2023-07-19T08:01:05.150Z,43.86
2023-07-19T08:03:32.755Z,43.47
2023-07-19T08:06:00.549Z,43.61
2023-07-19T08:08:27.947Z,43.52
2023-07-19T08:10:55.573Z,44.08
2023-07-19T08:13:22.998Z,43.98
2023-07-19T08:15:50.869Z,43.75
2023-07-19T08:18:18.237Z,43.83
2023-07-19T08:20:45.866Z,43.94
2023-07-19T08:23:13.308Z,43.81
2023-07-19T08:25:42.263Z,44.10
2023-07-19T08:28:09.679Z,44.19
2023-07-19T08:30:37.333Z,43.89
2023-07-19T08:33:09.487Z,43.84
2023-07-19T08:35:37.239Z,44.12
2023-07-19T08:38:04.651Z,44.21
2023-07-19T08:40:34.996Z,44.07
2023-07-19T08:43:07.332Z,44.04
2023-07-19T08:45:39.824Z,44.38
2023-07-19T08:48:08.534Z,44.42
2023-07-19T08:50:37.363Z,44.12
2023-07-19T08:53:05.716Z,44.13
2023-07-19T08:55:33.475Z,44.56
2023-07-19T08:58:01.128Z,44.09
2023-07-19T09:00:31.547Z,44.51
2023-07-19T09:02:59.007Z,44.44
2023-07-19T09:05:31.947Z,44.53
2023-07-19T09:08:03.722Z,44.51
2023-07-19T09:10:32.086Z,44.43
2023-07-19T09:12:59.541Z,44.53
2023-07-19T09:15:28.952Z,44.18
2023-07-19T09:17:56.660Z,44.48
2023-07-19T09:20:28.529Z,44.45
2023-07-19T09:22:58.757Z,44.64
2023-07-19T09:25:26.734Z,44.24
2023-07-19T09:27:54.810Z,44.48
2023-07-19T09:30:22.543Z,44.40
2023-07-19T09:33:01.135Z,44.26
2023-07-19T09:35:30.076Z,44.43
2023-07-19T09:37:59.804Z,44.42
2023-07-19T09:40:27.662Z,44.59
2023-07-19T09:42:56.611Z,44.46
2023-07-19T09:45:26.663Z,44.57
2023-07-19T09:47:55.193Z,44.15
2023-07-19T09:50:24.307Z,44.05
2023-07-19T09:52:53.118Z,44.26
2023-07-19T09:55:21.667Z,44.00
2023-07-19T09:57:50.370Z,44.11
2023-07-19T10:00:18.282Z,44.03
2023-07-19T10:02:46.619Z,44.01
2023-07-19T10:05:15.388Z,44.27
2023-07-19T10:07:51.463Z,43.84
2023-07-19T10:10:21.357Z,44.15
2023-07-19T10:12:50.133Z,43.61
2023-07-19T10:15:21.930Z,43.73
2023-07-19T10:18:00.713Z,43.86
2023-07-19T10:20:34.261Z,44.50
2023-07-19T10:23:04.514Z,44.59
2023-07-19T10:25:49.444Z,44.76
2023-07-19T10:28:31.530Z,45.43
2023-07-19T10:31:17.363Z,44.92
2023-07-19T10:33:48.634Z,45.44
2023-07-19T10:36:16.288Z,45.50
2023-07-19T10:38:44.087Z,46.00
2023-07-19T10:41:13.610Z,45.54
2023-07-19T10:43:46.974Z,45.32
2023-07-19T10:46:15.590Z,45.84
2023-07-19T10:48:43.536Z,45.69
2023-07-19T10:51:11.785Z,46.10
2023-07-19T10:54:00.511Z,45.92
2023-07-19T10:56:29.259Z,45.80
2023-07-19T10:59:00.616Z,46.66
2023-07-19T11:01:30.711Z,46.09
2023-07-19T11:04:05.908Z,46.10
2023-07-19T11:06:57.949Z,45.87
2023-07-19T11:09:26.630Z,46.39
2023-07-19T11:11:54.617Z,46.74
2023-07-19T11:14:32.717Z,46.67
2023-07-19T11:17:01.179Z,46.47
2023-07-19T11:19:40.088Z,46.40
2023-07-19T11:22:09.120Z,46.42
2023-07-19T11:24:38.925Z,46.54
2023-07-19T11:27:07.714Z,46.20
2023-07-19T11:29:35.953Z,46.74
2023-07-19T11:32:21.746Z,45.95
2023-07-19T11:34:52.296Z,46.17
2023-07-19T11:37:27.451Z,45.91
2023-07-19T11:40:00.487Z,46.83
2023-07-19T11:42:48.576Z,46.47
2023-07-19T11:45:18.700Z,46.32
2023-07-19T11:47:49.016Z,46.80
2023-07-19T11:50:16.792Z,45.96
2023-07-19T11:52:55.336Z,46.61
2023-07-19T11:55:23.757Z,47.63
2023-07-19T11:57:53.038Z,47.50
2023-07-19T12:00:24.814Z,46.94
2023-07-19T12:02:53.325Z,46.19
2023-07-19T12:05:23.396Z,46.03
2023-07-19T12:07:51.866Z,46.44
2023-07-19T12:10:21.338Z,46.95
2023-07-19T12:12:49.740Z,46.10
2023-07-19T12:15:18.266Z,45.94
2023-07-19T12:17:46.453Z,46.02
2023-07-19T12:20:13.855Z,46.39
2023-07-19T12:22:43.572Z,46.09
2023-07-19T12:25:11.575Z,46.17
2023-07-19T12:27:39.945Z,45.85
2023-07-19T12:30:08.113Z,46.21
2023-07-19T12:32:35.842Z,46.41
2023-07-19T12:35:03.851Z,46.41
2023-07-19T12:37:31.606Z,46.19
2023-07-19T12:39:59.102Z,46.46
2023-07-19T12:42:29.092Z,46.28
2023-07-19T12:44:56.434Z,45.95
2023-07-19T12:47:24.109Z,45.97
2023-07-19T12:49:51.449Z,46.13
2023-07-19T12:52:20.991Z,45.93
2023-07-19T12:54:48.420Z,46.07
2023-07-19T12:57:16.035Z,46.28
2023-07-19T12:59:43.571Z,46.31
2023-07-19T13:02:11.280Z,46.39
2023-07-19T13:04:38.731Z,45.79
2023-07-19T13:07:06.820Z,45.58
2023-07-19T13:09:34.712Z,45.24
2023-07-19T13:12:02.552Z,44.65
2023-07-19T13:14:29.883Z,44.65
2023-07-19T13:17:15.532Z,45.06
2023-07-19T13:19:46.368Z,44.89
2023-07-19T13:22:14.075Z,45.02
2023-07-19T13:24:41.416Z,45.34
2023-07-19T13:27:09.095Z,44.96
2023-07-19T13:29:38.110Z,45.03
2023-07-19T13:32:07.326Z,45.39
2023-07-19T13:34:36.147Z,45.15
2023-07-19T13:37:06.286Z,45.07
2023-07-19T13:39:36.038Z,44.79
2023-07-19T13:42:05.196Z,45.28
2023-07-19T13:44:33.079Z,45.27
2023-07-19T13:47:01.877Z,45.15
2023-07-19T13:49:29.417Z,44.69
2023-07-19T13:51:57.249Z,44.42
2023-07-19T13:54:24.968Z,44.83
2023-07-19T13:56:52.644Z,44.49
2023-07-19T13:59:19.966Z,44.41
2023-07-19T14:01:48.885Z,44.52
2023-07-19T14:04:16.412Z,44.38
2023-07-19T14:06:44.232Z,44.20
2023-07-19T14:09:11.670Z,44.79
2023-07-19T14:11:39.501Z,44.24
2023-07-19T14:14:06.833Z,44.38
2023-07-19T14:16:34.772Z,44.05
2023-07-19T14:19:02.732Z,44.14
2023-07-19T14:21:30.329Z,44.28
2023-07-19T14:23:57.668Z,44.36
2023-07-19T14:26:25.547Z,44.08
2023-07-19T14:28:53.306Z,44.53
2023-07-19T14:31:22.745Z,44.47
2023-07-19T14:33:50.338Z,44.12
2023-07-19T14:36:18.019Z,44.01
2023-07-19T14:38:45.362Z,44.08
2023-07-19T14:41:13.364Z,44.04
2023-07-19T14:43:42.754Z,43.86
2023-07-19T14:46:10.389Z,44.07
2023-07-19T14:48:37.809Z,44.06
2023-07-19T14:51:06.745Z,44.24
2023-07-19T14:53:34.526Z,44.12
2023-07-19T14:56:02.147Z,44.23
2023-07-19T14:58:29.500Z,44.15
2023-07-19T15:00:57.612Z,44.41
2023-07-19T15:05:57.313Z,44.34
2023-07-19T15:08:24.698Z,44.17
2023-07-19T15:10:52.385Z,44.00
2023-07-19T15:13:21.184Z,44.50
2023-07-19T15:15:49.164Z,44.39
2023-07-19T15:18:18.149Z,44.56
2023-07-19T15:20:48.827Z,44.57
2023-07-19T15:23:16.889Z,44.03
2023-07-19T15:25:44.559Z,44.52
2023-07-19T15:28:28.197Z,44.35
2023-07-19T15:30:59.415Z,44.68
2023-07-19T15:33:27.117Z,44.75
2023-07-19T15:35:54.736Z,44.98
2023-07-19T15:38:24.269Z,44.47
2023-07-19T15:40:52.821Z,44.93
2023-07-19T15:43:20.930Z,44.87
2023-07-19T15:45:48.644Z,44.47
2023-07-19T15:48:16.007Z,44.61
2023-07-19T15:50:44.824Z,44.50
2023-07-19T15:53:15.816Z,44.50
2023-07-19T15:55:43.532Z,44.86
2023-07-19T15:58:10.852Z,44.76
2023-07-19T16:00:38.711Z,44.75
2023-07-19T16:03:06.196Z,44.63
2023-07-19T16:05:34.089Z,44.80
2023-07-19T16:08:01.631Z,44.73
2023-07-19T16:10:29.328Z,44.79
2023-07-19T16:12:56.819Z,45.09
2023-07-19T16:15:24.417Z,44.60
2023-07-19T16:17:51.814Z,44.98
2023-07-19T16:20:19.668Z,45.11
2023-07-19T16:22:47.731Z,44.88
2023-07-19T16:25:16.006Z,45.11
2023-07-19T16:27:43.364Z,44.81
2023-07-19T16:30:11.384Z,45.08
2023-07-19T16:32:39.309Z,44.72
2023-07-19T16:35:07.089Z,44.83
2023-07-19T16:37:34.406Z,44.74
2023-07-19T16:40:02.766Z,45.16
2023-07-19T16:42:30.224Z,45.07
2023-07-19T16:44:57.848Z,45.04
2023-07-19T16:47:25.286Z,44.71
2023-07-19T16:49:52.941Z,45.02
2023-07-19T16:52:20.299Z,44.78
2023-07-19T16:54:47.955Z,44.68
2023-07-19T16:57:15.278Z,44.90
2023-07-19T16:59:42.910Z,44.69
2023-07-19T17:02:11.277Z,44.74
2023-07-19T17:04:38.934Z,44.98
2023-07-19T17:07:06.318Z,44.50
2023-07-19T17:09:34.209Z,44.94
2023-07-19T17:12:02.688Z,44.01
2023-07-19T17:14:30.418Z,44.22
2023-07-19T17:17:10.940Z,44.02
2023-07-19T17:19:40.651Z,43.76
2023-07-19T17:22:09.426Z,43.81
2023-07-19T17:24:37.356Z,44.04
2023-07-19T17:27:05.384Z,43.79
2023-07-19T17:29:33.218Z,43.70
2023-07-19T17:32:00.844Z,43.69
2023-07-19T17:34:28.563Z,43.59
2023-07-19T17:36:56.003Z,43.87
2023-07-19T17:39:23.878Z,43.38
2023-07-19T17:41:51.407Z,43.79
2023-07-19T17:44:19.091Z,43.17
2023-07-19T17:46:46.560Z,43.12
2023-07-19T17:49:14.238Z,43.67
2023-07-19T17:51:41.851Z,43.13
2023-07-19T17:54:09.460Z,43.43
2023-07-19T17:56:36.832Z,43.24
2023-07-19T17:59:04.507Z,43.22
2023-07-19T18:01:31.910Z,43.43
2023-07-19T18:03:59.631Z,43.18
2023-07-19T18:06:27.017Z,43.17
2023-07-19T18:08:54.624Z,43.35
2023-07-19T18:11:22.305Z,43.58
2023-07-19T18:13:50.445Z,43.23
2023-07-19T18:16:17.815Z,43.45
2023-07-19T18:18:45.461Z,43.70
2023-07-19T18:21:12.924Z,43.68
2023-07-19T18:23:41.068Z,43.45
2023-07-19T18:26:08.476Z,43.80
2023-07-19T18:28:36.323Z,43.88
2023-07-19T18:31:04.312Z,43.62
2023-07-19T18:33:32.485Z,43.71
2023-07-19T18:35:59.821Z,43.72
2023-07-19T18:38:27.443Z,43.88
2023-07-19T18:40:55.325Z,43.75
2023-07-19T18:43:22.999Z,43.39
2023-07-19T18:45:50.540Z,43.34
2023-07-19T18:48:18.466Z,43.43
2023-07-19T18:50:45.867Z,43.44
2023-07-19T18:53:13.486Z,43.43
2023-07-19T18:55:40.856Z,43.43
2023-07-19T18:58:08.612Z,43.38
2023-07-19T19:00:36.152Z,43.13
2023-07-19T19:03:04.387Z,42.67
2023-07-19T19:05:33.067Z,42.73
2023-07-19T19:08:00.686Z,43.01
2023-07-19T19:10:28.006Z,43.07
2023-07-19T19:12:55.606Z,43.02
2023-07-19T19:15:23.111Z,43.43
2023-07-19T19:17:50.820Z,43.05
2023-07-19T19:20:18.447Z,43.00
2023-07-19T19:22:46.186Z,43.19
2023-07-19T19:25:13.585Z,43.14
2023-07-19T19:27:41.354Z,43.50
2023-07-19T19:30:09.180Z,43.56
2023-07-19T19:32:37.123Z,43.23
2023-07-19T19:35:04.910Z,43.26
2023-07-19T19:37:32.735Z,42.72
2023-07-19T19:40:00.206Z,42.94
2023-07-19T19:42:30.059Z,43.12
2023-07-19T19:44:57.447Z,42.93
2023-07-19T19:47:25.069Z,43.20
2023-07-19T19:49:52.592Z,43.04
2023-07-19T19:52:21.088Z,42.90
2023-07-19T19:54:49.952Z,43.19
2023-07-19T19:57:18.033Z,43.04
2023-07-19T19:59:48.585Z,43.01
2023-07-19T20:04:46.911Z,43.20
2023-07-19T20:07:14.677Z,43.34
2023-07-19T20:09:55.668Z,43.01
2023-07-19T20:12:28.888Z,42.67
2023-07-19T20:14:56.457Z,42.58
2023-07-19T20:17:24.086Z,42.76
2023-07-19T20:19:54.204Z,42.60
2023-07-19T20:22:22.168Z,42.78
2023-07-19T20:24:57.869Z,42.55
2023-07-19T20:27:40.487Z,42.74
2023-07-19T20:30:10.543Z,42.71
2023-07-19T20:35:09.491Z,42.83
2023-07-19T20:37:39.357Z,42.93
2023-07-19T20:41:34.148Z,43.24
2023-07-19T20:42:57.440Z,43.07
2023-07-19T20:45:28.910Z,43.09
2023-07-19T20:48:01.571Z,43.18
2023-07-19T20:50:30.270Z,43.36
2023-07-19T20:52:57.957Z,43.23
2023-07-19T20:55:25.426Z,43.37
2023-07-19T20:57:53.174Z,43.04
2023-07-19T21:00:21.863Z,43.44
2023-07-19T21:02:49.694Z,43.00
2023-07-19T21:05:17.319Z,43.28
2023-07-19T21:07:44.957Z,43.42
2023-07-19T21:10:12.610Z,43.30
2023-07-19T21:12:40.351Z,43.01
2023-07-19T21:15:08.759Z,43.44
2023-07-19T21:17:36.559Z,43.70
2023-07-19T21:20:04.331Z,43.30
2023-07-19T21:22:32.127Z,43.23
2023-07-19T21:25:14.943Z,43.41
2023-07-19T21:27:43.096Z,43.58
2023-07-19T21:30:12.651Z,43.70
2023-07-19T21:32:41.062Z,43.42
2023-07-19T21:35:08.944Z,43.51
2023-07-19T21:37:37.935Z,43.74
2023-07-19T21:40:06.069Z,43.94
2023-07-19T21:42:34.016Z,43.94
2023-07-19T21:45:01.406Z,43.89
2023-07-19T21:47:29.145Z,43.81
2023-07-19T21:49:56.927Z,44.28
2023-07-19T21:52:25.841Z,44.09
2023-07-19T21:54:53.193Z,43.84
2023-07-19T21:57:20.798Z,43.96
2023-07-19T21:59:48.142Z,44.06
2023-07-19T22:02:15.732Z,43.92
2023-07-19T22:04:43.143Z,43.96
2023-07-19T22:08:14.317Z,44.26
2023-07-19T22:11:10.459Z,44.13
2023-07-19T22:13:40.308Z,43.98
2023-07-19T22:16:07.686Z,44.23
2023-07-19T22:18:35.401Z,43.96
2023-07-19T22:21:19.724Z,44.27
2023-07-19T22:23:48.888Z,44.00
2023-07-19T22:26:16.371Z,44.03
2023-07-19T22:28:44.089Z,44.09
2023-07-19T22:31:11.634Z,44.05
2023-07-19T22:33:39.374Z,44.25
2023-07-19T22:36:06.812Z,44.22
2023-07-19T22:38:34.464Z,44.36
2023-07-19T22:41:01.804Z,44.47
2023-07-19T22:43:29.708Z,44.20
2023-07-19T22:45:57.021Z,44.35
2023-07-19T22:48:24.686Z,44.31
2023-07-19T22:50:52.019Z,44.35
2023-07-19T22:53:19.705Z,44.60
2023-07-19T22:55:47.111Z,44.46
2023-07-19T22:58:14.762Z,44.56
2023-07-19T23:00:42.724Z,44.29
2023-07-19T23:03:10.475Z,44.65
2023-07-19T23:05:38.339Z,44.58
2023-07-19T23:08:05.953Z,44.29
2023-07-19T23:10:33.280Z,44.48
2023-07-19T23:13:00.885Z,44.27
2023-07-19T23:15:28.266Z,44.18
2023-07-19T23:17:55.905Z,44.10
2023-07-19T23:20:23.285Z,44.38
2023-07-19T23:22:50.963Z,44.19
2023-07-19T23:25:19.302Z,44.50
2023-07-19T23:27:47.011Z,44.59
2023-07-19T23:30:14.589Z,44.68
2023-07-19T23:32:42.191Z,44.61
2023-07-19T23:35:09.663Z,44.27
2023-07-19T23:37:37.339Z,44.82
2023-07-19T23:40:07.968Z,44.81
2023-07-19T23:42:35.637Z,44.21
2023-07-19T23:45:03.089Z,44.63
2023-07-19T23:47:30.858Z,44.54
2023-07-19T23:49:58.203Z,44.78
2023-07-19T23:52:25.801Z,44.50
2023-07-19T23:54:53.135Z,44.82
2023-07-19T23:57:20.737Z,44.39
2023-07-19T23:59:48.107Z,44.53
